Nearby METAR Reports

 

EGMC - Southend-On-Sea, United Kingdom
Distance from station: NE 10km
Updated: 27/02/2020 15:50
Few Clouds
Few Clouds
 Wind from WNW
Wind: WNW 20 mph , 31 km/h
Temperature: 7°C
Wind Chill: 3°C
Dew Point: -2°C
Humidity: 53%
Barometer: 1004 hPa
Clouds: Few Clouds
Visibility: 6 miles , 10 km
Cloud details: Few Clouds 1463 m
2020/02/27 15:50 EGMC 271550Z 30017KT 9999 FEW048 07/M02 Q1004
EGLC - London City Airp, United Kingdom
Distance from station: W 37km
Updated: 27/02/2020 15:50
Partly cloudy
Partly cloudy
 Wind from WNW
Wind: WNW 22 mph , 35 km/h, Gust: 35 mph , 56 km/h
Temperature: 8°C
Wind Chill: 3°C
Dew Point: -2°C
Humidity: 50%
Barometer: 1005 hPa
Clouds: Partly cloudy
Visibility: 6 miles , 10 km
Cloud details: Partly cloudy 1372 m
2020/02/27 15:50 EGLC 271550Z AUTO 30019G30KT 9999 SCT045 08/M02 Q1005
EGKB - Biggin Hill, United Kingdom
Distance from station: WSW 45km
Updated: 27/02/2020 15:50
Few Clouds
Few Clouds
 Wind from WNW
Wind: WNW 22 mph , 35 km/h, Gust: 37 mph , 59 km/h
Temperature: 5°C
Wind Chill: -1°C
Dew Point: -4°C
Humidity: 53%
Barometer: 1005 hPa
Clouds: Few Clouds
Visibility: 6 miles , 10 km
Cloud details: Few Clouds 1219 m
2020/02/27 15:50 EGKB 271550Z 30019G32KT 9999 FEW040 05/M04 Q1005
 
EGSS - Stansted Airport, United Kingdom
Distance from station: NNW 48km
Updated: 27/02/2020 15:50
Partly cloudy
Partly cloudy
 Wind from NW
Wind: NW 14 mph , 22 km/h, Gust: 26 mph , 43 km/h
Temperature: 7°C
Wind Chill: 4°C
Dew Point: 0°C
Humidity: 61%
Barometer: 1004 hPa
Clouds: Partly cloudy
Visibility: 6 miles , 10 km
Cloud details: Partly cloudy 1036 m
2020/02/27 15:50 EGSS 271550Z AUTO 31012G23KT 9999 SCT034 07/M00 Q1004
EGKK - London/Gatwick A, United Kingdom
Distance from station: SW 67km
Updated: 27/02/2020 15:50
Few Clouds
Few Clouds
 Wind from NW
Wind: NW 18 mph , 30 km/h, Gust: 32 mph , 52 km/h
Temperature: 8°C
Wind Chill: 4°C
Dew Point: -2°C
Humidity: 50%
Barometer: 1006 hPa
Clouds: Few Clouds
Visibility: 6 miles , 10 km
Cloud details: Few Clouds 1341 m
2020/02/27 15:50 EGKK 271550Z 31016G28KT 9999 FEW044 08/M02 Q1006
EGMD - Lydd Airport, United Kingdom
Distance from station: SSE 67km
Updated: 27/02/2020 15:50
Few Clouds
Few Clouds
 Wind from NW
Wind: NW 29 mph , 46 km/h
Temperature: 7°C
Wind Chill: 2°C
Dew Point: 1°C
Humidity: 66%
Barometer: 1005 hPa
Clouds: Few Clouds
Visibility: 6 miles , 10 km
Cloud details: Few Clouds 1067 m
2020/02/27 15:50 EGMD 271550Z 31025KT 9999 FEW035 07/01 Q1005
 
EGWU - Northolt Raf, United Kingdom
Distance from station: W 69km
Updated: 27/02/2020 15:50
Few Clouds
Few Clouds
 Wind from NNW
Wind: NNW 16 mph , 26 km/h
Temperature: 8°C
Wind Chill: 4°C
Dew Point: -1°C
Humidity: 53%
Barometer: 1006 hPa
Clouds: Few Clouds
Visibility: 6 miles , 10 km
Cloud details: Few Clouds 1280 m
2020/02/27 15:50 EGWU 271550Z 33014KT 9999 FEW042 08/M01 Q1006 NOSIG
EGLL - London/Heathrow, United Kingdom
Distance from station: W 72km
Updated: 27/02/2020 15:50
Clear
Clear
 Wind from NW
Wind: NW 15 mph , 24 km/h
Temperature: 8°C
Wind Chill: 4°C
Dew Point: -2°C
Humidity: 50%
Barometer: 1006 hPa
Clouds: Clear
Visibility: 6 miles , 10 km
2020/02/27 15:50 EGLL 271550Z AUTO 31013KT 9999 NCD 08/M02 Q1006 NOSIG
EGUW - Wattisham Raf, United Kingdom
Distance from station: NNE 72km
Updated: 27/02/2020 15:50
Few Clouds
Few Clouds
 Wind from NW
Wind: NW 18 mph , 30 km/h
Temperature: 6°C
Wind Chill: 2°C
Dew Point: -1°C
Humidity: 61%
Barometer: 1003 hPa
Clouds: Few Clouds
Visibility: 6 miles , 10 km
Cloud details: Few Clouds 1067 m
2020/02/27 15:50 EGUW 271550Z 32016KT 9999 FEW035 06/M01 Q1003 NOSIG RMK BLU BLU
 
EGGW - Luton Airport, United Kingdom
Distance from station: WNW 76km
Updated: 27/02/2020 15:50
Few Clouds
Few Clouds
 Wind from NW
Wind: NW 21 mph , 33 km/h
Temperature: 5°C
Wind Chill: 0°C
Dew Point: -2°C
Humidity: 61%
Barometer: 1005 hPa
Clouds: Few Clouds
Visibility: 6 miles , 10 km
Cloud details: Few Clouds 1494 m
2020/02/27 15:50 EGGW 271550Z AUTO 31018KT 9999 FEW049 05/M02 Q1005
EGSC - Cambridge, United Kingdom
Distance from station: NNW 81km
Updated: 27/02/2020 15:50
Few Clouds
Few Clouds
 Wind from NW
Wind: NW 22 mph , 35 km/h
Temperature: 7°C
Wind Chill: 3°C
Dew Point: -1°C
Humidity: 57%
Barometer: 1004 hPa
Clouds: Few Clouds
Visibility: 6 miles , 10 km
Cloud details: Few Clouds 1280 m
2020/02/27 15:50 EGSC 271550Z 31019KT 270V330 9999 FEW042 07/M01 Q1004